createdAt,value
2022-11-23T00:01:22.354Z,95908.16
2022-11-23T00:03:54.246Z,95899.97
2022-11-23T00:06:22.646Z,95903.28
2022-11-23T00:08:50.266Z,95896.28
2022-11-23T00:11:17.825Z,95894.06
2022-11-23T00:13:44.983Z,95894.06
2022-11-23T00:16:20.314Z,95883.09
2022-11-23T00:18:47.207Z,95888.09
2022-11-23T00:21:17.850Z,95887.88
2022-11-23T00:23:45.377Z,95879.22
2022-11-23T00:26:13.028Z,95885.13
2022-11-23T00:28:40.793Z,95877.38
2022-11-23T00:31:08.315Z,95890.88
2022-11-23T00:33:35.002Z,95884.97
2022-11-23T00:36:07.821Z,95884.41
2022-11-23T00:38:34.395Z,95887.00
2022-11-23T00:41:02.878Z,95891.97
2022-11-23T00:43:29.927Z,95890.38
2022-11-23T00:46:17.158Z,95895.25
2022-11-23T00:48:44.898Z,95891.16
2022-11-23T00:51:15.545Z,95881.91
2022-11-23T00:53:43.101Z,95887.31
2022-11-23T00:56:10.148Z,95879.16
2022-11-23T00:58:39.841Z,95885.38
2022-11-23T01:01:13.893Z,95876.81
2022-11-23T01:03:45.941Z,95874.09
2022-11-23T01:06:15.803Z,95873.31
2022-11-23T01:08:42.825Z,95882.00
2022-11-23T01:11:12.087Z,95887.06
2022-11-23T01:13:40.651Z,95883.75
2022-11-23T01:16:18.209Z,95880.88
2022-11-23T01:18:53.523Z,95890.56
2022-11-23T01:21:20.077Z,95891.72
2022-11-23T01:23:46.723Z,95883.25
2022-11-23T01:26:13.340Z,95877.94
2022-11-23T01:28:40.747Z,95867.00
2022-11-23T01:31:09.070Z,95872.03
2022-11-23T01:33:36.580Z,95884.22
2022-11-23T01:36:14.815Z,95881.56
2022-11-23T01:38:42.539Z,95876.28
2022-11-23T01:41:12.630Z,95882.13
2022-11-23T01:43:39.160Z,95884.63
2022-11-23T01:46:06.098Z,95886.28
2022-11-23T01:48:39.071Z,95886.00
2022-11-23T01:51:09.855Z,95869.31
2022-11-23T01:53:37.969Z,95880.09
2022-11-23T01:56:07.074Z,95871.00
2022-11-23T01:58:39.783Z,95872.34
2022-11-23T02:01:07.477Z,95862.78
2022-11-23T02:03:37.420Z,95865.06
2022-11-23T02:06:11.643Z,95859.41
2022-11-23T02:08:39.051Z,95862.59
2022-11-23T02:11:05.607Z,95860.97
2022-11-23T02:13:32.130Z,95870.00
2022-11-23T02:15:59.517Z,95864.88
2022-11-23T02:18:27.882Z,95861.22
2022-11-23T02:20:56.756Z,95863.59
2022-11-23T02:23:51.029Z,95862.84
2022-11-23T02:26:29.823Z,95864.28
2022-11-23T02:29:05.190Z,95865.19
2022-11-23T02:31:32.370Z,95870.94
2022-11-23T02:33:58.959Z,95873.88
2022-11-23T02:36:34.294Z,95875.97
2022-11-23T02:39:05.292Z,95867.47
2022-11-23T02:41:39.975Z,95866.09
2022-11-23T02:44:13.664Z,95855.75
2022-11-23T02:46:40.334Z,95853.69
2022-11-23T02:49:06.869Z,95851.94
2022-11-23T02:51:33.373Z,95853.91
2022-11-23T02:53:59.973Z,95850.44
2022-11-23T02:56:27.443Z,95839.78
2022-11-23T02:58:53.945Z,95836.47
2022-11-23T03:01:20.553Z,95826.78
2022-11-23T03:03:47.105Z,95826.31
2022-11-23T03:06:13.599Z,95827.28
2022-11-23T03:08:40.118Z,95831.75
2022-11-23T03:11:06.610Z,95838.94
2022-11-23T03:13:33.171Z,95840.56
2022-11-23T03:15:59.690Z,95836.91
2022-11-23T03:18:26.281Z,95841.84
2022-11-23T03:20:52.879Z,95836.25
2022-11-23T03:23:19.480Z,95842.13
2022-11-23T03:25:46.029Z,95840.56
2022-11-23T03:28:12.554Z,95835.53
2022-11-23T03:30:39.044Z,95837.66
2022-11-23T03:33:05.546Z,95845.47
2022-11-23T03:35:32.037Z,95841.03
2022-11-23T03:37:58.703Z,95839.47
2022-11-23T03:40:25.235Z,95846.03
2022-11-23T03:42:51.754Z,95841.41
2022-11-23T03:45:18.281Z,95845.75
2022-11-23T03:47:44.963Z,95834.44
2022-11-23T03:50:11.766Z,95824.22
2022-11-23T03:52:38.359Z,95829.13
2022-11-23T03:55:05.494Z,95818.41
2022-11-23T03:57:32.049Z,95826.22
2022-11-23T03:59:58.554Z,95827.97
2022-11-23T04:02:25.083Z,95832.31
2022-11-23T04:04:51.695Z,95831.72
2022-11-23T04:07:18.362Z,95817.44
2022-11-23T04:09:44.919Z,95826.91
2022-11-23T04:12:11.467Z,95833.88
2022-11-23T04:14:38.007Z,95828.59
2022-11-23T04:17:04.595Z,95848.56
2022-11-23T04:19:31.379Z,95845.09
2022-11-23T04:21:58.409Z,95844.13
2022-11-23T04:24:24.934Z,95843.16
2022-11-23T04:26:51.443Z,95848.75
2022-11-23T04:29:17.959Z,95853.41
2022-11-23T04:31:44.826Z,95858.03
2022-11-23T04:34:11.547Z,95858.59
2022-11-23T04:36:38.176Z,95856.09
2022-11-23T04:39:04.820Z,95864.50
2022-11-23T04:41:31.339Z,95864.41
2022-11-23T04:43:57.916Z,95862.09
2022-11-23T04:46:24.462Z,95857.06
2022-11-23T04:48:51.002Z,95865.75
2022-11-23T04:51:17.614Z,95870.38
2022-11-23T04:53:44.284Z,95861.69
2022-11-23T04:56:10.850Z,95865.56
2022-11-23T04:58:37.367Z,95850.09
2022-11-23T05:01:04.785Z,95851.44
2022-11-23T05:03:31.433Z,95858.13
2022-11-23T05:05:58.844Z,95850.38
2022-11-23T05:08:25.249Z,95855.13
2022-11-23T05:10:51.900Z,95844.69
2022-11-23T05:13:18.442Z,95855.13
2022-11-23T05:15:45.030Z,95859.00
2022-11-23T05:18:12.158Z,95844.41
2022-11-23T05:20:38.751Z,95852.41
2022-11-23T05:23:05.373Z,95855.72
2022-11-23T05:25:32.206Z,95852.34
2022-11-23T05:28:03.756Z,95859.88
2022-11-23T05:30:37.829Z,95850.91
2022-11-23T05:33:04.407Z,95845.28
2022-11-23T05:35:31.128Z,95848.75
2022-11-23T05:37:57.727Z,95852.34
2022-11-23T05:40:24.890Z,95841.44
2022-11-23T05:42:55.979Z,95838.34
2022-11-23T05:45:23.061Z,95846.25
2022-11-23T05:47:54.366Z,95846.53
2022-11-23T05:50:22.302Z,95848.19
2022-11-23T05:52:48.981Z,95849.53
2022-11-23T05:55:16.246Z,95841.03
2022-11-23T05:57:42.922Z,95853.22
2022-11-23T06:00:10.870Z,95851.28
2022-11-23T06:02:41.263Z,95854.94
2022-11-23T06:05:09.029Z,95853.97
2022-11-23T06:07:35.916Z,95861.97
2022-11-23T06:10:03.590Z,95855.88
2022-11-23T06:12:30.574Z,95853.97
2022-11-23T06:14:57.070Z,95858.59
2022-11-23T06:17:26.743Z,95857.66
2022-11-23T06:19:53.252Z,95853.56
2022-11-23T06:22:19.808Z,95860.63
2022-11-23T06:24:46.394Z,95863.31
2022-11-23T06:27:18.363Z,95864.19
2022-11-23T06:29:45.120Z,95873.38
2022-11-23T06:32:11.675Z,95870.38
2022-11-23T06:34:38.234Z,95864.88
2022-11-23T06:37:04.757Z,95866.97
2022-11-23T06:39:31.825Z,95852.78
2022-11-23T06:42:16.517Z,95857.59
2022-11-23T06:44:44.969Z,95858.66
2022-11-23T06:47:16.545Z,95867.06
2022-11-23T06:49:43.809Z,95859.34
2022-11-23T06:52:10.341Z,95864.66
2022-11-23T06:54:36.996Z,95877.91
2022-11-23T06:57:03.586Z,95882.75
2022-11-23T06:59:30.281Z,95880.63
2022-11-23T07:01:57.217Z,95873.66
2022-11-23T07:04:23.753Z,95880.84
2022-11-23T07:06:50.288Z,95880.06
2022-11-23T07:09:16.814Z,95885.09
2022-11-23T07:11:43.950Z,95885.09
2022-11-23T07:14:10.444Z,95889.63
2022-11-23T07:16:37.189Z,95896.88
2022-11-23T07:19:03.768Z,95891.44
2022-11-23T07:21:30.333Z,95895.19
2022-11-23T07:23:56.838Z,95894.69
2022-11-23T07:26:23.347Z,95891.13
2022-11-23T07:28:49.862Z,95885.25
2022-11-23T07:31:16.583Z,95891.59
2022-11-23T07:33:46.721Z,95893.25
2022-11-23T07:36:13.989Z,95878.81
2022-11-23T07:38:40.594Z,95887.06
2022-11-23T07:41:08.715Z,95882.13
2022-11-23T07:43:35.237Z,95869.56
2022-11-23T07:46:01.819Z,95867.88
2022-11-23T07:48:33.219Z,95871.06
2022-11-23T07:51:02.648Z,95874.91
2022-11-23T07:53:29.190Z,95882.25
2022-11-23T07:55:57.834Z,95880.63
2022-11-23T07:58:24.848Z,95876.81
2022-11-23T08:00:51.808Z,95870.03
2022-11-23T08:03:33.892Z,95877.78
2022-11-23T08:06:00.548Z,95884.22
2022-11-23T08:08:27.158Z,95887.06
2022-11-23T08:10:54.721Z,95892.19
2022-11-23T08:13:22.409Z,95892.44
2022-11-23T08:15:55.063Z,95878.34
2022-11-23T08:18:23.116Z,95884.22
2022-11-23T08:20:49.869Z,95880.88
2022-11-23T08:23:16.627Z,95886.06
2022-11-23T08:25:43.340Z,95894.88
2022-11-23T08:28:10.473Z,95879.59
2022-11-23T08:30:37.231Z,95882.41
2022-11-23T08:33:08.140Z,95879.88
2022-11-23T08:35:36.616Z,95876.28
2022-11-23T08:38:04.402Z,95879.94
2022-11-23T08:40:31.571Z,95873.88
2022-11-23T08:42:58.184Z,95884.41
2022-11-23T08:45:25.148Z,95879.84
2022-11-23T08:47:51.748Z,95882.41
2022-11-23T08:50:18.806Z,95875.88
2022-11-23T08:52:45.434Z,95874.06
2022-11-23T08:55:12.036Z,95875.41
2022-11-23T08:57:38.849Z,95876.06
2022-11-23T09:00:06.251Z,95866.22
2022-11-23T09:02:32.952Z,95854.25
2022-11-23T09:05:00.640Z,95849.75
2022-11-23T09:07:27.270Z,95854.06
2022-11-23T09:09:53.827Z,95853.47
2022-11-23T09:12:20.418Z,95865.59
2022-11-23T09:14:47.030Z,95852.13
2022-11-23T09:17:13.593Z,95859.56
2022-11-23T09:19:40.266Z,95858.31
2022-11-23T09:22:06.991Z,95868.47
2022-11-23T09:24:33.999Z,95858.84
2022-11-23T09:27:00.883Z,95854.69
2022-11-23T09:29:27.932Z,95846.44
2022-11-23T09:31:54.468Z,95851.22
2022-11-23T09:34:21.141Z,95847.00
2022-11-23T09:36:48.021Z,95848.56
2022-11-23T09:39:14.676Z,95846.13
2022-11-23T09:41:59.234Z,95837.72
2022-11-23T09:44:39.389Z,95841.34
2022-11-23T09:47:23.985Z,95840.53
2022-11-23T09:49:56.220Z,95835.06
2022-11-23T09:52:24.256Z,95829.09
2022-11-23T09:54:56.159Z,95822.06
2022-11-23T09:57:28.198Z,95828.81
2022-11-23T10:00:27.620Z,95819.34
2022-11-23T10:02:54.266Z,95823.53
2022-11-23T10:05:24.145Z,95821.75
2022-11-23T10:08:22.257Z,95826.31
2022-11-23T10:11:01.928Z,95826.84
2022-11-23T10:13:43.103Z,95825.06
2022-11-23T10:16:21.559Z,95810.47
2022-11-23T10:19:16.793Z,95810.53
2022-11-23T10:22:06.601Z,95809.41
2022-11-23T10:24:38.475Z,95802.78
2022-11-23T10:27:13.885Z,95812.31
2022-11-23T10:29:42.335Z,95811.84
2022-11-23T10:32:32.766Z,95814.75
2022-11-23T10:35:14.141Z,95808.16
2022-11-23T10:37:41.165Z,95811.28
2022-11-23T10:40:26.204Z,95815.88
2022-11-23T10:43:05.309Z,95824.88
2022-11-23T10:45:31.863Z,95832.28
2022-11-23T10:48:00.237Z,95844.56
2022-11-23T10:50:30.223Z,95834.13
2022-11-23T10:53:12.508Z,95836.47
2022-11-23T10:55:58.288Z,95844.97
2022-11-23T10:58:31.726Z,95854.63
2022-11-23T11:01:11.996Z,95852.66
2022-11-23T11:03:38.681Z,95846.31
2022-11-23T11:06:10.100Z,95828.56
2022-11-23T11:08:49.109Z,95830.94
2022-11-23T11:11:28.991Z,95832.97
2022-11-23T11:14:03.409Z,95830.66
2022-11-23T11:16:33.511Z,95836.56
2022-11-23T11:19:21.183Z,95825.78
2022-11-23T11:21:47.725Z,95823.22
2022-11-23T11:24:18.792Z,95822.69
2022-11-23T11:27:01.603Z,95827.28
2022-11-23T11:29:39.021Z,95817.72
2022-11-23T11:32:23.772Z,95816.91
2022-11-23T11:35:31.847Z,95819.75
2022-11-23T11:38:08.712Z,95813.53
2022-11-23T11:40:54.772Z,95815.25
2022-11-23T11:43:36.205Z,95819.56
2022-11-23T11:46:28.624Z,95812.31
2022-11-23T11:49:03.016Z,95799.88
2022-11-23T11:51:55.469Z,95806.81
2022-11-23T11:54:30.202Z,95795.56
2022-11-23T11:57:03.913Z,95779.72
2022-11-23T11:59:42.851Z,95763.19
2022-11-23T12:02:35.619Z,95764.25
2022-11-23T12:05:18.435Z,95776.22
2022-11-23T12:07:47.719Z,95782.63
2022-11-23T12:10:19.940Z,95775.72
2022-11-23T12:12:48.283Z,95765.16
2022-11-23T12:15:47.881Z,95759.97
2022-11-23T12:18:32.901Z,95754.88
2022-11-23T12:21:38.551Z,95756.91
2022-11-23T12:24:05.216Z,95751.13
2022-11-23T12:26:53.562Z,95760.13
2022-11-23T12:29:42.145Z,95764.00
2022-11-23T12:32:25.339Z,95753.63
2022-11-23T12:35:10.650Z,95759.75
2022-11-23T12:37:55.784Z,95767.84
2022-11-23T12:40:36.110Z,95756.34
2022-11-23T12:43:14.113Z,95764.38
2022-11-23T12:46:08.339Z,95769.84
2022-11-23T12:49:03.111Z,95775.81
2022-11-23T12:51:52.637Z,95785.13
2022-11-23T12:54:46.894Z,95767.41
2022-11-23T12:57:25.978Z,95766.78
2022-11-23T13:00:02.244Z,95780.22
2022-11-23T13:02:39.839Z,95779.00
2022-11-23T13:05:09.300Z,95781.38
2022-11-23T13:07:49.416Z,95780.81
2022-11-23T13:10:34.760Z,95788.84
2022-11-23T13:13:01.250Z,95800.41
2022-11-23T13:16:04.917Z,95791.72
2022-11-23T13:18:43.504Z,95802.06
2022-11-23T13:21:12.637Z,95815.44
2022-11-23T13:23:40.291Z,95812.31
2022-11-23T13:26:12.606Z,95816.16
2022-11-23T13:28:39.136Z,95814.59
2022-11-23T13:31:23.614Z,95825.25
2022-11-23T13:33:55.458Z,95825.31
2022-11-23T13:36:56.557Z,95831.16
2022-11-23T13:39:42.348Z,95814.22
2022-11-23T13:42:10.924Z,95814.31
2022-11-23T13:44:38.022Z,95809.38
2022-11-23T13:47:20.055Z,95817.13
2022-11-23T13:49:47.626Z,95813.13
2022-11-23T13:52:20.305Z,95811.16
2022-11-23T13:55:13.496Z,95819.09
2022-11-23T13:57:45.421Z,95826.19
2022-11-23T14:00:47.098Z,95828.31
2022-11-23T14:03:47.923Z,95845.53
2022-11-23T14:06:20.589Z,95849.19
2022-11-23T14:08:50.865Z,95858.16
2022-11-23T14:11:22.618Z,95869.03
2022-11-23T14:13:55.236Z,95866.25
2022-11-23T14:16:43.515Z,95859.09
2022-11-23T14:19:24.746Z,95869.91
2022-11-23T14:22:03.215Z,95880.72
2022-11-23T14:24:50.825Z,95874.63
2022-11-23T14:27:46.403Z,95879.28
2022-11-23T14:30:22.747Z,95875.69
2022-11-23T14:33:13.760Z,95871.06
2022-11-23T14:35:54.261Z,95873.94
2022-11-23T14:38:20.800Z,95878.31
2022-11-23T14:40:53.062Z,95876.25
2022-11-23T14:43:20.614Z,95886.28
2022-11-23T14:45:47.898Z,95887.56
2022-11-23T14:48:31.497Z,95889.38
2022-11-23T14:51:04.969Z,95889.88
2022-11-23T14:53:36.168Z,95884.22
2022-11-23T14:56:02.782Z,95885.00
2022-11-23T14:58:32.899Z,95889.13
2022-11-23T15:01:03.526Z,95887.56
2022-11-23T15:03:49.944Z,95897.84
2022-11-23T15:06:18.515Z,95882.97
2022-11-23T15:09:02.884Z,95898.34
2022-11-23T15:11:32.814Z,95900.19
2022-11-23T15:14:02.480Z,95904.53
2022-11-23T15:16:30.071Z,95898.91
2022-11-23T15:18:57.163Z,95898.38
2022-11-23T15:21:27.869Z,95893.75
2022-11-23T15:23:58.442Z,95900.69
2022-11-23T15:26:49.166Z,95895.81
2022-11-23T15:29:38.499Z,95898.13
2022-11-23T15:32:30.830Z,95896.84
2022-11-23T15:35:10.693Z,95901.19
2022-11-23T15:37:44.848Z,95902.25
2022-11-23T15:40:17.194Z,95907.09
2022-11-23T15:42:45.461Z,95911.44
2022-11-23T15:45:35.445Z,95905.81
2022-11-23T15:48:11.170Z,95909.13
2022-11-23T15:51:11.304Z,95919.88
2022-11-23T15:53:46.711Z,95914.97
2022-11-23T15:56:29.620Z,95922.94
2022-11-23T15:58:57.971Z,95923.97
2022-11-23T16:01:25.441Z,95930.34
2022-11-23T16:04:01.258Z,95929.06
2022-11-23T16:06:38.763Z,95935.97
2022-11-23T16:09:53.156Z,95933.16
2022-11-23T16:12:31.831Z,95941.59
2022-11-23T16:15:18.112Z,95958.03
2022-11-23T16:17:45.246Z,95959.00
2022-11-23T16:20:15.201Z,95954.38
2022-11-23T16:22:48.709Z,95966.38
2022-11-23T16:25:27.094Z,95972.53
2022-11-23T16:28:15.423Z,95968.44
2022-11-23T16:30:44.309Z,95973.31
2022-11-23T16:33:16.310Z,95980.78
2022-11-23T16:35:43.109Z,95982.31
2022-11-23T16:38:09.996Z,95987.47
2022-11-23T16:40:36.554Z,95978.19
2022-11-23T16:43:04.165Z,95983.81
2022-11-23T16:45:31.823Z,95975.81
2022-11-23T16:48:03.078Z,95977.13
2022-11-23T16:50:32.002Z,95983.78
2022-11-23T16:53:09.207Z,95981.72
2022-11-23T16:55:40.672Z,96006.81
2022-11-23T16:58:15.418Z,95996.31
2022-11-23T17:00:42.463Z,95995.81
2022-11-23T17:03:18.953Z,95999.41
2022-11-23T17:05:46.089Z,95984.78
2022-11-23T17:08:16.800Z,95986.03
2022-11-23T17:10:46.945Z,95995.66
2022-11-23T17:13:23.963Z,95985.66
2022-11-23T17:15:51.186Z,95995.84
2022-11-23T17:18:17.806Z,96000.94
2022-11-23T17:20:44.814Z,96003.16
2022-11-23T17:23:11.984Z,96004.50
2022-11-23T17:25:40.112Z,96007.59
2022-11-23T17:28:15.109Z,96000.41
2022-11-23T17:30:42.541Z,96006.97
2022-11-23T17:33:11.831Z,96011.09
2022-11-23T17:35:39.025Z,96003.66
2022-11-23T17:38:06.882Z,96011.00
2022-11-23T17:40:33.875Z,95996.94
2022-11-23T17:43:00.409Z,96005.63
2022-11-23T17:45:27.102Z,96001.75
2022-11-23T17:47:53.759Z,95996.41
2022-11-23T17:50:20.330Z,95992.84
2022-11-23T17:52:47.856Z,95991.56
2022-11-23T17:55:15.464Z,95992.66
2022-11-23T17:57:42.106Z,95999.56
2022-11-23T18:00:19.248Z,96020.06
2022-11-23T18:02:46.075Z,96025.34
2022-11-23T18:05:17.840Z,96022.75
2022-11-23T18:07:48.710Z,96013.50
2022-11-23T18:10:15.845Z,96015.69
2022-11-23T18:12:44.507Z,96018.19
2022-11-23T18:15:11.916Z,96016.25
2022-11-23T18:17:38.689Z,96023.34
2022-11-23T18:20:08.330Z,96019.44
2022-11-23T18:22:35.392Z,96022.19
2022-11-23T18:25:02.135Z,96026.22
2022-11-23T18:27:29.889Z,96031.47
2022-11-23T18:29:56.623Z,96037.59
2022-11-23T18:32:23.285Z,96038.31
2022-11-23T18:34:49.891Z,96042.53
2022-11-23T18:37:16.583Z,96038.47
2022-11-23T18:39:43.145Z,96034.34
2022-11-23T18:42:09.929Z,96044.47
2022-11-23T18:44:36.477Z,96044.78
2022-11-23T18:47:03.089Z,96046.72
2022-11-23T18:49:29.629Z,96049.97
2022-11-23T18:51:56.151Z,96047.44
2022-11-23T18:54:22.740Z,96057.13
2022-11-23T18:56:49.404Z,96045.53
2022-11-23T18:59:42.167Z,96056.00
2022-11-23T19:02:02.499Z,96049.47
2022-11-23T19:04:32.450Z,96045.22
2022-11-23T19:06:59.133Z,96046.59
2022-11-23T19:09:25.745Z,96051.28
2022-11-23T19:11:52.294Z,96046.66
2022-11-23T19:14:18.846Z,96056.94
2022-11-23T19:16:45.383Z,96048.63
2022-11-23T19:19:12.632Z,96057.34
2022-11-23T19:21:39.387Z,96052.00
2022-11-23T19:24:06.813Z,96055.78
2022-11-23T19:26:33.244Z,96055.50
2022-11-23T19:29:00.060Z,96057.72
2022-11-23T19:31:29.125Z,96056.66
2022-11-23T19:34:01.003Z,96058.31
2022-11-23T19:36:29.667Z,96061.03
2022-11-23T19:38:57.337Z,96071.66
2022-11-23T19:41:29.814Z,96077.16
2022-11-23T19:43:58.398Z,96070.47
2022-11-23T19:46:25.869Z,96079.75
2022-11-23T19:48:54.589Z,96084.13
2022-11-23T19:51:21.253Z,96080.72
2022-11-23T19:53:49.256Z,96081.09
2022-11-23T19:56:19.275Z,96079.00
2022-11-23T19:58:46.672Z,96073.38
2022-11-23T20:01:14.634Z,96076.34
2022-11-23T20:03:44.953Z,96087.84
2022-11-23T20:06:15.549Z,96085.06
2022-11-23T20:08:42.668Z,96092.13
2022-11-23T20:11:12.544Z,96095.00
2022-11-23T20:13:39.396Z,96098.09
2022-11-23T20:16:08.860Z,96099.63
2022-11-23T20:18:35.605Z,96100.41
2022-11-23T20:21:02.429Z,96104.94
2022-11-23T20:23:29.556Z,96103.09
2022-11-23T20:25:57.149Z,96108.09
2022-11-23T20:28:24.735Z,96110.41
2022-11-23T20:30:51.828Z,96114.75
2022-11-23T20:33:19.472Z,96126.94
2022-11-23T20:35:47.405Z,96118.63
2022-11-23T20:38:14.620Z,96118.19
2022-11-23T20:40:41.127Z,96124.41
2022-11-23T20:43:07.626Z,96122.63
2022-11-23T20:45:34.180Z,96122.97
2022-11-23T20:48:00.695Z,96121.31
2022-11-23T20:50:27.796Z,96128.75
2022-11-23T20:52:59.322Z,96115.25
2022-11-23T20:55:25.880Z,96115.06
2022-11-23T20:57:53.427Z,96123.81
2022-11-23T21:00:21.712Z,96122.34
2022-11-23T21:02:52.577Z,96125.34
2022-11-23T21:05:20.345Z,96121.41
2022-11-23T21:07:47.951Z,96111.56
2022-11-23T21:10:34.381Z,96123.34
2022-11-23T21:13:19.938Z,96130.97
2022-11-23T21:15:46.582Z,96129.75
2022-11-23T21:18:13.337Z,96136.59
2022-11-23T21:20:40.980Z,96126.34
2022-11-23T21:23:07.673Z,96136.97
2022-11-23T21:25:35.943Z,96133.25
2022-11-23T21:28:03.380Z,96136.56
2022-11-23T21:30:30.675Z,96131.72
2022-11-23T21:32:57.281Z,96131.44
2022-11-23T21:35:23.801Z,96135.03
2022-11-23T21:37:50.440Z,96133.91
2022-11-23T21:40:16.980Z,96130.47
2022-11-23T21:42:44.857Z,96129.81
2022-11-23T21:45:11.983Z,96134.47
2022-11-23T21:47:38.844Z,96119.53
2022-11-23T21:50:05.792Z,96131.19
2022-11-23T21:52:32.404Z,96127.09
2022-11-23T21:54:58.922Z,96124.13
2022-11-23T21:57:25.484Z,96127.53
2022-11-23T21:59:51.987Z,96127.53
2022-11-23T22:02:19.010Z,96132.53
2022-11-23T22:04:45.556Z,96135.34
2022-11-23T22:07:12.131Z,96133.50
2022-11-23T22:09:38.898Z,96135.06
2022-11-23T22:12:06.373Z,96135.72
2022-11-23T22:14:32.973Z,96131.25
2022-11-23T22:17:00.620Z,96146.06
2022-11-23T22:19:27.309Z,96143.03
2022-11-23T22:21:53.826Z,96141.84
2022-11-23T22:24:22.565Z,96137.84
2022-11-23T22:26:49.414Z,96140.91
2022-11-23T22:29:16.153Z,96139.56
2022-11-23T22:31:43.751Z,96139.94
2022-11-23T22:34:13.237Z,96145.81
2022-11-23T22:36:40.083Z,96140.22
2022-11-23T22:39:07.779Z,96142.72
2022-11-23T22:41:36.849Z,96132.94
2022-11-23T22:44:04.867Z,96131.91
2022-11-23T22:46:31.324Z,96138.09
2022-11-23T22:48:59.470Z,96139.06
2022-11-23T22:51:27.907Z,96147.97
2022-11-23T22:53:56.473Z,96140.09
2022-11-23T22:56:23.032Z,96139.78
2022-11-23T22:58:49.805Z,96139.78
2022-11-23T23:01:18.933Z,96134.06
2022-11-23T23:03:46.701Z,96130.78
2022-11-23T23:06:19.095Z,96143.81
2022-11-23T23:08:46.787Z,96142.09
2022-11-23T23:11:15.308Z,96138.22
2022-11-23T23:13:42.379Z,96137.75
2022-11-23T23:16:12.814Z,96141.97
2022-11-23T23:18:40.802Z,96134.56
2022-11-23T23:21:11.001Z,96136.41
2022-11-23T23:23:39.202Z,96133.66
2022-11-23T23:26:06.147Z,96137.19
2022-11-23T23:28:32.816Z,96138.91
2022-11-23T23:31:04.965Z,96137.38
2022-11-23T23:33:33.461Z,96132.09
2022-11-23T23:36:06.035Z,96126.81
2022-11-23T23:38:33.509Z,96143.09
2022-11-23T23:41:00.568Z,96142.78
2022-11-23T23:43:27.992Z,96138.63
2022-11-23T23:45:58.958Z,96142.19
2022-11-23T23:48:29.086Z,96144.69
2022-11-23T23:50:55.849Z,96138.19
2022-11-23T23:53:22.512Z,96126.06
2022-11-23T23:56:01.189Z,96130.88
2022-11-23T23:58:29.023Z,96137.56
